Central City, IA (52214)

10:22 AM CDT on May 05, 2015 (GMT -0500)
KIACENTR2 | | Change Station
CLOSE
Current Station
Personal Weather Station
Location: Central City, IA
Elevation: 930 ft
Nearby Weather Stations

Elev 930 ft 42.20 °N, 91.65 °W | Updated 3 minutes ago

Overcast
Overcast
59.0 °F
Feels Like 59.0 °F
N
11.3
Wind Variable Wind from East
Gusts 15.7 mph

Today
High -- | Low -- °F
--% Chance of Precip.
Yesterday
High -- | Low -- °F
Precip. -- in
5:56 AM 8:09 PM
Full, 98% visible
Pressure 30.19 in
Visibility 4.0 miles
Clouds Overcast 500 ft
Dew Point 47 °F
Humidity 64%
Rainfall -999.00 in
Snow Depth Not available.
UV 0.0 out of 12
Pollen 3.30 out of 12
Air Quality Not available.
Flu Activity Local Activity
METAR KMXO 051515Z AUTO 08008KT 4SM BR OVC005 13/13 A3019 RMK AO2

More Conditions Fewer Conditions

Pressure 30.19 in
Visibility 4.0 miles
Clouds Overcast 500 ft
Dew Point 47 °F
Humidity 64%
Rainfall -999.00 in
Snow Depth Not available.
UV 0.0 out of 12
Pollen 3.30 out of 12
Air Quality Not available.
Flu Activity Local Activity
METAR KMXO 051515Z AUTO 08008KT 4SM BR OVC005 13/13 A3019 RMK AO2

More Conditions Fewer Conditions

10-Day Weather Forecast

Almanac

Astronomy

May. 05, 2015 Rise Set
Actual Time
Civil Twilight
Nautical Twilight
Astronomical Twilight
Moon
Length of Visible Light
Length of Day
Tomorrow will be .
, % of the Moon is Illuminated

Today's Extremes

State Highs State Lows

Community

WunderPhotos

Upload Photos

1,818,917 photos uploaded!

WunderBlogs® & News

Nearby

Air Quality

  Air Quality AQ Index Pollutant
Not available.

Snow Depth

Station Depth Elevation

Earthquake Activity

City Distance Mag. Time & Date
Minimum magnitude displayed is 2.5.

Coastal Water Temperatures

Place Temperature

Stations

Nearby Weather Stations

Station Location Temp. Windchill Dew Point Humidity Wind Precip. Elev Updated Type